createdAt,value
2023-02-09T00:00:02.584Z,31.90
2023-02-09T00:02:43.267Z,31.02
2023-02-09T00:05:13.112Z,27.35
2023-02-09T00:07:41.526Z,29.55
2023-02-09T00:10:10.550Z,29.33
2023-02-09T00:12:56.052Z,31.63
2023-02-09T00:15:24.629Z,23.85
2023-02-09T00:17:54.590Z,33.88
2023-02-09T00:20:23.054Z,32.53
2023-02-09T00:22:51.402Z,32.08
2023-02-09T00:25:20.288Z,26.77
2023-02-09T00:27:48.695Z,30.77
2023-02-09T00:30:16.905Z,28.95
2023-02-09T00:32:47.072Z,37.83
2023-02-09T00:35:17.531Z,28.98
2023-02-09T00:37:46.359Z,26.67
2023-02-09T00:40:14.958Z,27.23
2023-02-09T00:42:43.122Z,32.78
2023-02-09T00:45:11.867Z,31.02
2023-02-09T00:47:40.136Z,29.17
2023-02-09T00:50:09.267Z,31.08
2023-02-09T00:52:38.830Z,31.90
2023-02-09T00:55:07.506Z,29.65
2023-02-09T00:57:36.232Z,34.42
2023-02-09T01:00:06.534Z,23.05
2023-02-09T01:02:34.873Z,27.23
2023-02-09T01:05:03.473Z,28.85
2023-02-09T01:07:32.009Z,28.98
2023-02-09T01:10:03.109Z,27.35
2023-02-09T01:12:32.086Z,32.53
2023-02-09T01:15:02.259Z,29.73
2023-02-09T01:17:30.760Z,33.35
2023-02-09T01:19:59.236Z,28.35
2023-02-09T01:22:27.546Z,22.65
2023-02-09T01:24:55.906Z,34.72
2023-02-09T01:27:25.618Z,34.58
2023-02-09T01:29:53.938Z,35.67
2023-02-09T01:32:22.081Z,35.63
2023-02-09T01:34:52.031Z,31.48
2023-02-09T01:37:20.546Z,30.10
2023-02-09T01:39:49.383Z,29.70
2023-02-09T01:42:20.617Z,29.92
2023-02-09T01:45:20.276Z,31.25
2023-02-09T01:47:51.679Z,33.15
2023-02-09T01:50:21.090Z,38.50
2023-02-09T01:52:50.892Z,28.33
2023-02-09T01:55:23.862Z,33.55
2023-02-09T01:57:56.000Z,28.63
2023-02-09T02:00:26.699Z,28.20
2023-02-09T02:02:58.672Z,35.97
2023-02-09T02:05:28.258Z,37.60
2023-02-09T02:08:02.525Z,32.22
2023-02-09T02:10:31.142Z,28.33
2023-02-09T02:12:59.540Z,27.48
2023-02-09T02:15:34.388Z,31.00
2023-02-09T02:18:24.600Z,30.33
2023-02-09T02:21:16.177Z,28.00
2023-02-09T02:23:53.864Z,35.17
2023-02-09T02:26:40.052Z,28.45
2023-02-09T02:29:26.091Z,29.00
2023-02-09T02:32:13.836Z,35.13
2023-02-09T02:34:48.473Z,31.02
2023-02-09T02:37:29.418Z,30.10
2023-02-09T02:40:11.581Z,27.85
2023-02-09T02:42:53.008Z,31.08
2023-02-09T02:45:34.081Z,37.55
2023-02-09T02:48:13.206Z,37.65
2023-02-09T02:50:47.820Z,31.45
2023-02-09T02:53:19.348Z,37.05
2023-02-09T02:55:50.328Z,34.20
2023-02-09T03:00:52.793Z,31.48
2023-02-09T03:03:24.791Z,33.65
2023-02-09T03:05:54.262Z,35.28
2023-02-09T03:08:22.599Z,36.72
2023-02-09T03:10:51.012Z,32.25
2023-02-09T03:13:38.587Z,37.75
2023-02-09T03:16:29.273Z,30.73
2023-02-09T03:19:09.465Z,43.20
2023-02-09T03:21:47.808Z,34.33
2023-02-09T03:24:25.655Z,39.00
2023-02-09T03:26:58.913Z,35.38
2023-02-09T03:29:28.998Z,39.47
2023-02-09T03:31:58.244Z,41.13
2023-02-09T03:34:28.682Z,38.88
2023-02-09T03:36:58.682Z,39.50
2023-02-09T03:39:27.048Z,37.00
2023-02-09T03:41:55.443Z,36.42
2023-02-09T03:44:30.222Z,33.95
2023-02-09T03:47:00.516Z,40.35
2023-02-09T03:49:33.634Z,42.35
2023-02-09T03:52:02.088Z,31.85
2023-02-09T03:54:30.759Z,35.97
2023-02-09T03:57:01.153Z,31.95
2023-02-09T03:59:29.633Z,30.48
2023-02-09T04:01:59.709Z,34.45
2023-02-09T04:04:29.336Z,31.77
2023-02-09T04:06:58.150Z,40.40
2023-02-09T04:09:27.135Z,37.35
2023-02-09T04:11:56.069Z,36.83
2023-02-09T04:14:24.730Z,37.85
2023-02-09T04:16:53.090Z,36.20
2023-02-09T04:19:21.773Z,32.65
2023-02-09T04:21:52.804Z,29.70
2023-02-09T04:24:28.893Z,37.10
2023-02-09T04:26:57.266Z,26.17
2023-02-09T04:29:25.939Z,31.98
2023-02-09T04:31:54.211Z,28.10
2023-02-09T04:34:24.265Z,36.55
2023-02-09T04:36:53.992Z,35.60
2023-02-09T04:39:22.098Z,34.55
2023-02-09T04:41:50.430Z,28.85
2023-02-09T04:44:18.665Z,33.17
2023-02-09T04:46:47.159Z,37.50
2023-02-09T04:49:15.861Z,33.15
2023-02-09T04:51:44.641Z,37.63
2023-02-09T04:54:14.400Z,45.17
2023-02-09T04:56:42.762Z,37.75
2023-02-09T04:59:29.013Z,45.97
2023-02-09T05:01:57.336Z,35.22
2023-02-09T05:04:26.172Z,44.72
2023-02-09T05:06:54.468Z,42.33
2023-02-09T05:09:24.798Z,46.70
2023-02-09T05:11:52.982Z,38.85
2023-02-09T05:14:22.751Z,39.17
2023-02-09T05:16:51.202Z,36.15
2023-02-09T05:19:19.607Z,40.70
2023-02-09T05:21:48.135Z,37.60
2023-02-09T05:24:16.468Z,42.25
2023-02-09T05:26:46.239Z,35.92
2023-02-09T05:29:14.781Z,34.63
2023-02-09T05:31:43.260Z,41.90
2023-02-09T05:34:12.088Z,30.35
2023-02-09T05:36:40.443Z,33.08
2023-02-09T05:39:08.805Z,33.83
2023-02-09T05:41:54.440Z,37.33
2023-02-09T05:44:24.248Z,26.70
2023-02-09T05:46:52.592Z,31.73
2023-02-09T05:49:21.287Z,34.70
2023-02-09T05:51:49.698Z,33.83
2023-02-09T05:54:18.109Z,37.67
2023-02-09T05:56:46.547Z,34.70
2023-02-09T05:59:15.101Z,31.40
2023-02-09T06:01:44.929Z,38.53
2023-02-09T06:04:13.475Z,43.78
2023-02-09T06:06:41.859Z,36.10
2023-02-09T06:09:10.542Z,33.60
2023-02-09T06:11:38.886Z,43.97
2023-02-09T06:14:07.191Z,37.42
2023-02-09T06:16:35.396Z,31.38
2023-02-09T06:19:05.517Z,40.65
2023-02-09T06:21:33.772Z,33.33
2023-02-09T06:24:02.072Z,43.20
2023-02-09T06:26:30.380Z,34.47
2023-02-09T06:28:58.713Z,35.78
2023-02-09T06:31:27.236Z,35.60
2023-02-09T06:33:55.808Z,40.92
2023-02-09T06:36:25.450Z,40.38
2023-02-09T06:38:53.851Z,35.63
2023-02-09T06:41:22.282Z,36.13
2023-02-09T06:43:50.404Z,39.83
2023-02-09T06:46:18.795Z,41.40
2023-02-09T06:48:47.256Z,37.45
2023-02-09T06:51:17.880Z,40.10
2023-02-09T06:53:48.134Z,49.27
2023-02-09T06:56:16.646Z,38.70
2023-02-09T06:58:44.811Z,32.67
2023-02-09T07:01:16.027Z,38.38
2023-02-09T07:03:45.216Z,39.75
2023-02-09T07:06:16.387Z,32.45
2023-02-09T07:08:45.646Z,43.28
2023-02-09T07:11:17.488Z,33.00
2023-02-09T07:13:46.940Z,45.45
2023-02-09T07:16:15.646Z,36.28
2023-02-09T07:18:44.466Z,39.78
2023-02-09T07:21:15.782Z,34.70
2023-02-09T07:26:16.879Z,39.20
2023-02-09T07:28:46.008Z,43.90
2023-02-09T07:31:16.129Z,39.92
2023-02-09T07:33:44.723Z,38.27
2023-02-09T07:36:15.569Z,41.63
2023-02-09T07:38:45.532Z,40.08
2023-02-09T07:41:18.291Z,43.80
2023-02-09T07:43:47.227Z,56.30
2023-02-09T07:46:17.842Z,65.65
2023-02-09T07:48:47.152Z,62.53
2023-02-09T07:51:16.273Z,47.10
2023-02-09T07:53:45.088Z,62.08
2023-02-09T07:56:13.554Z,53.45
2023-02-09T07:58:44.117Z,54.03
2023-02-09T08:01:13.999Z,50.05
2023-02-09T08:03:45.079Z,50.47
2023-02-09T08:06:21.799Z,51.78
2023-02-09T08:08:52.328Z,44.65
2023-02-09T08:11:24.484Z,53.83
2023-02-09T08:13:55.917Z,56.05
2023-02-09T08:16:29.935Z,53.97
2023-02-09T08:19:01.397Z,57.10
2023-02-09T08:24:00.479Z,51.25
2023-02-09T08:26:29.200Z,55.67
2023-02-09T08:28:59.399Z,55.42
2023-02-09T08:31:27.842Z,61.17
2023-02-09T08:33:56.309Z,62.33
2023-02-09T08:36:25.121Z,51.33
2023-02-09T08:38:53.470Z,48.95
2023-02-09T08:41:24.036Z,50.95
2023-02-09T08:43:53.042Z,49.53
2023-02-09T08:46:22.966Z,45.65
2023-02-09T08:48:51.531Z,44.10
2023-02-09T08:51:20.259Z,53.45
2023-02-09T08:53:52.691Z,47.70
2023-02-09T08:56:22.504Z,47.55
2023-02-09T08:58:51.428Z,55.00
2023-02-09T09:01:19.902Z,52.35
2023-02-09T09:03:49.905Z,45.50
2023-02-09T09:06:18.612Z,43.50
2023-02-09T09:08:46.972Z,48.92
2023-02-09T09:11:16.169Z,50.70
2023-02-09T09:13:44.615Z,52.58
2023-02-09T09:16:17.380Z,49.25
2023-02-09T09:18:46.222Z,51.28
2023-02-09T09:21:17.631Z,51.75
2023-02-09T09:23:47.080Z,46.05
2023-02-09T09:26:16.591Z,47.22
2023-02-09T09:28:45.530Z,49.95
2023-02-09T09:31:15.776Z,44.60
2023-02-09T09:33:44.472Z,53.60
2023-02-09T09:36:14.707Z,48.53
2023-02-09T09:38:45.655Z,55.97
2023-02-09T09:41:24.741Z,50.40
2023-02-09T09:43:54.907Z,44.97
2023-02-09T09:46:32.533Z,50.78
2023-02-09T09:49:01.961Z,51.75
2023-02-09T09:51:38.205Z,50.30
2023-02-09T09:54:14.098Z,55.47
2023-02-09T09:56:42.676Z,58.42
2023-02-09T09:59:17.998Z,54.78
2023-02-09T10:01:50.547Z,48.35
2023-02-09T10:04:20.977Z,62.08
2023-02-09T10:06:57.688Z,70.40
2023-02-09T10:09:36.999Z,53.00
2023-02-09T10:12:16.762Z,82.93
2023-02-09T10:14:45.085Z,115.82
2023-02-09T10:17:13.423Z,110.35
2023-02-09T10:19:42.838Z,84.22
2023-02-09T10:22:14.065Z,80.63
2023-02-09T10:24:43.718Z,80.07
2023-02-09T10:27:16.477Z,60.80
2023-02-09T10:29:44.862Z,73.07
2023-02-09T10:32:18.016Z,59.28
2023-02-09T10:34:49.119Z,48.72
2023-02-09T10:37:21.810Z,43.70
2023-02-09T10:40:01.553Z,59.65
2023-02-09T10:42:32.710Z,71.45
2023-02-09T10:45:08.273Z,68.63
2023-02-09T10:47:36.604Z,54.33
2023-02-09T10:50:25.900Z,56.40
2023-02-09T10:53:00.248Z,48.05
2023-02-09T10:55:36.483Z,62.15
2023-02-09T10:58:16.246Z,58.05
2023-02-09T11:00:51.817Z,50.97
2023-02-09T11:03:22.763Z,46.97
2023-02-09T11:05:59.773Z,46.67
2023-02-09T11:08:39.703Z,45.38
2023-02-09T11:11:14.898Z,50.38
2023-02-09T11:13:43.617Z,53.80
2023-02-09T11:16:44.611Z,52.55
2023-02-09T11:19:32.165Z,50.53
2023-02-09T11:22:09.457Z,51.47
2023-02-09T11:24:59.904Z,47.40
2023-02-09T11:27:44.471Z,65.30
2023-02-09T11:30:33.224Z,53.38
2023-02-09T11:33:11.742Z,55.17
2023-02-09T11:35:51.967Z,58.80
2023-02-09T11:38:29.315Z,67.75
2023-02-09T11:40:59.731Z,57.88
2023-02-09T11:43:36.984Z,57.85
2023-02-09T11:46:13.226Z,54.50
2023-02-09T11:48:48.149Z,49.13
2023-02-09T11:51:20.723Z,47.10
2023-02-09T11:53:55.980Z,45.60
2023-02-09T11:56:26.552Z,47.75
2023-02-09T11:59:02.088Z,50.53
2023-02-09T12:01:42.337Z,58.92
2023-02-09T12:04:21.018Z,46.20
2023-02-09T12:06:52.347Z,45.67
2023-02-09T12:09:35.746Z,49.72
2023-02-09T12:12:15.193Z,66.70
2023-02-09T12:14:58.606Z,62.75
2023-02-09T12:17:36.204Z,64.80
2023-02-09T12:20:05.755Z,53.90
2023-02-09T12:22:58.833Z,59.58
2023-02-09T12:26:01.114Z,52.08
2023-02-09T12:28:42.499Z,67.50
2023-02-09T12:34:22.667Z,57.88
2023-02-09T12:37:20.070Z,55.13
2023-02-09T12:40:19.423Z,49.53
2023-02-09T12:43:06.940Z,50.90
2023-02-09T12:45:37.974Z,50.10
2023-02-09T12:48:17.747Z,51.67
2023-02-09T12:50:50.572Z,47.80
2023-02-09T12:53:50.230Z,55.08
2023-02-09T12:56:28.625Z,54.42
2023-02-09T12:59:17.073Z,40.58
2023-02-09T13:02:11.210Z,51.20
2023-02-09T13:04:50.156Z,48.05
2023-02-09T13:07:28.291Z,39.05
2023-02-09T13:10:00.125Z,42.85
2023-02-09T13:12:37.318Z,38.53
2023-02-09T13:15:14.117Z,32.40
2023-02-09T13:17:50.520Z,30.98
2023-02-09T13:20:58.842Z,29.25
2023-02-09T13:23:44.620Z,36.03
2023-02-09T13:26:21.665Z,32.65
2023-02-09T13:28:50.442Z,31.48
2023-02-09T13:31:27.661Z,29.70
2023-02-09T13:34:01.891Z,30.75
2023-02-09T13:36:40.944Z,33.78
2023-02-09T13:39:10.183Z,29.05
2023-02-09T13:41:40.969Z,35.35
2023-02-09T13:44:23.512Z,30.13
2023-02-09T13:46:54.732Z,31.98
2023-02-09T13:49:24.729Z,33.72
2023-02-09T13:52:13.722Z,29.83
2023-02-09T13:54:43.498Z,31.85
2023-02-09T13:57:19.311Z,27.02
2023-02-09T13:59:48.910Z,32.35
2023-02-09T14:02:21.295Z,23.67
2023-02-09T14:04:55.958Z,19.50
2023-02-09T14:07:32.155Z,22.33
2023-02-09T14:10:04.256Z,21.83
2023-02-09T14:12:55.770Z,27.90
2023-02-09T14:15:46.991Z,27.25
2023-02-09T14:18:31.044Z,26.98
2023-02-09T14:21:01.399Z,23.73
2023-02-09T14:23:35.440Z,27.95
2023-02-09T14:26:06.495Z,26.98
2023-02-09T14:31:07.374Z,32.17
2023-02-09T14:33:38.909Z,26.45
2023-02-09T14:36:23.483Z,20.98
2023-02-09T14:39:04.606Z,22.33
2023-02-09T14:41:34.690Z,20.23
2023-02-09T14:44:04.537Z,25.38
2023-02-09T14:46:49.342Z,34.83
2023-02-09T14:49:19.404Z,37.13
2023-02-09T14:51:49.440Z,42.80
2023-02-09T14:54:26.565Z,30.58
2023-02-09T14:56:57.992Z,29.48
2023-02-09T14:59:27.026Z,23.33
2023-02-09T15:01:56.889Z,25.83
2023-02-09T15:04:25.729Z,26.45
2023-02-09T15:07:02.970Z,33.67
2023-02-09T15:09:38.114Z,33.58
2023-02-09T15:12:08.505Z,29.90
2023-02-09T15:14:44.162Z,32.40
2023-02-09T15:17:17.711Z,28.65
2023-02-09T15:19:46.741Z,24.77
2023-02-09T15:22:16.760Z,27.33
2023-02-09T15:24:49.548Z,24.33
2023-02-09T15:27:26.679Z,28.38
2023-02-09T15:29:59.330Z,27.88
2023-02-09T15:32:29.110Z,29.58
2023-02-09T15:34:57.546Z,29.08
2023-02-09T15:37:28.546Z,26.55
2023-02-09T15:40:03.085Z,29.70
2023-02-09T15:42:57.380Z,32.03
2023-02-09T15:45:46.265Z,26.55
2023-02-09T15:48:16.165Z,31.30
2023-02-09T15:50:46.933Z,30.77
2023-02-09T15:53:19.398Z,33.55
2023-02-09T15:55:49.485Z,28.58
2023-02-09T15:58:20.840Z,33.33
2023-02-09T16:00:49.222Z,36.33
2023-02-09T16:03:20.194Z,37.28
2023-02-09T16:05:50.856Z,42.28
2023-02-09T16:08:23.302Z,52.60
2023-02-09T16:10:53.906Z,51.58
2023-02-09T16:13:22.276Z,47.83
2023-02-09T16:15:53.165Z,46.75
2023-02-09T16:18:21.684Z,49.07
2023-02-09T16:20:52.906Z,50.08
2023-02-09T16:23:23.905Z,45.05
2023-02-09T16:25:55.107Z,46.05
2023-02-09T16:28:23.620Z,51.85
2023-02-09T16:30:54.551Z,50.03
2023-02-09T16:33:25.272Z,45.63
2023-02-09T16:35:56.624Z,40.58
2023-02-09T16:38:26.820Z,46.40
2023-02-09T16:40:57.400Z,48.40
2023-02-09T16:43:25.930Z,44.90
2023-02-09T16:46:03.232Z,42.72
2023-02-09T16:48:35.088Z,45.42
2023-02-09T16:51:03.766Z,43.17
2023-02-09T16:53:34.622Z,48.50
2023-02-09T16:56:10.225Z,51.30
2023-02-09T16:58:39.683Z,35.72
2023-02-09T17:01:14.270Z,48.55
2023-02-09T17:03:44.397Z,40.97
2023-02-09T17:06:17.460Z,42.80
2023-02-09T17:08:46.208Z,41.33
2023-02-09T17:11:19.187Z,43.85
2023-02-09T17:13:48.460Z,46.22
2023-02-09T17:16:20.068Z,43.15
2023-02-09T17:18:51.598Z,46.03
2023-02-09T17:21:23.444Z,45.38
2023-02-09T17:26:22.512Z,40.80
2023-02-09T17:28:51.222Z,40.45
2023-02-09T17:31:23.440Z,48.53
2023-02-09T17:33:54.104Z,43.03
2023-02-09T17:36:28.062Z,53.88
2023-02-09T17:38:58.735Z,68.85
2023-02-09T17:41:32.639Z,64.30
2023-02-09T17:44:22.445Z,57.55
2023-02-09T17:46:57.773Z,51.63
2023-02-09T17:49:26.552Z,68.85
2023-02-09T17:51:55.071Z,65.18
2023-02-09T17:54:23.516Z,64.22
2023-02-09T17:56:54.096Z,59.47
2023-02-09T17:59:22.648Z,60.83
2023-02-09T18:01:51.306Z,55.85
2023-02-09T18:04:27.434Z,59.80
2023-02-09T18:06:57.764Z,58.55
2023-02-09T18:09:26.257Z,46.10
2023-02-09T18:12:02.254Z,52.55
2023-02-09T18:14:32.602Z,58.08
2023-02-09T18:17:01.443Z,61.95
2023-02-09T18:19:30.006Z,51.10
2023-02-09T18:22:01.076Z,59.10
2023-02-09T18:24:30.741Z,64.20
2023-02-09T18:27:00.905Z,62.75
2023-02-09T18:29:30.384Z,71.28
2023-02-09T18:31:59.212Z,67.90
2023-02-09T18:34:28.495Z,71.40
2023-02-09T18:36:56.944Z,60.80
2023-02-09T18:39:25.342Z,62.38
2023-02-09T18:41:55.338Z,57.58
2023-02-09T18:44:29.498Z,59.38
2023-02-09T18:47:00.527Z,60.15
2023-02-09T18:49:29.466Z,58.70
2023-02-09T18:51:59.492Z,59.53
2023-02-09T18:54:29.050Z,58.55
2023-02-09T18:56:57.606Z,55.35
2023-02-09T18:59:30.665Z,54.53
2023-02-09T19:01:59.654Z,52.35
2023-02-09T19:04:29.125Z,52.65
2023-02-09T19:06:59.351Z,52.55
2023-02-09T19:09:28.805Z,59.47
2023-02-09T19:11:59.780Z,57.53
2023-02-09T19:14:40.734Z,49.30
2023-02-09T19:17:19.768Z,48.88
2023-02-09T19:19:56.252Z,56.00
2023-02-09T19:22:26.388Z,52.15
2023-02-09T19:24:56.938Z,50.55
2023-02-09T19:27:29.808Z,49.03
2023-02-09T19:30:01.241Z,55.45
2023-02-09T19:32:33.943Z,47.15
2023-02-09T19:35:05.611Z,48.90
2023-02-09T19:37:36.840Z,47.25
2023-02-09T19:40:18.358Z,52.92
2023-02-09T19:42:48.975Z,51.20
2023-02-09T19:45:19.111Z,47.05
2023-02-09T19:47:47.432Z,68.53
2023-02-09T19:50:16.863Z,78.35
2023-02-09T19:52:49.577Z,52.72
2023-02-09T19:55:18.453Z,80.82
2023-02-09T19:57:47.036Z,86.82
2023-02-09T20:00:19.256Z,66.10
2023-02-09T20:02:48.540Z,57.15
2023-02-09T20:05:18.868Z,94.70
2023-02-09T20:07:48.971Z,61.70
2023-02-09T20:10:17.708Z,56.25
2023-02-09T20:12:46.779Z,60.55
2023-02-09T20:15:15.197Z,57.70
2023-02-09T20:20:13.736Z,60.85
2023-02-09T20:22:42.200Z,66.28
2023-02-09T20:25:11.630Z,84.30
2023-02-09T20:27:41.090Z,72.28
2023-02-09T20:30:11.152Z,89.55
2023-02-09T20:32:39.668Z,64.20
2023-02-09T20:35:12.256Z,55.72
2023-02-09T20:37:40.628Z,53.58
2023-02-09T20:40:11.458Z,59.60
2023-02-09T20:42:57.826Z,53.70
2023-02-09T20:45:44.014Z,47.72
2023-02-09T20:48:14.071Z,50.97
2023-02-09T20:50:45.379Z,53.53
2023-02-09T20:53:14.318Z,47.92
2023-02-09T20:55:43.508Z,40.38
2023-02-09T20:58:13.709Z,54.70
2023-02-09T21:00:42.558Z,51.30
2023-02-09T21:03:11.304Z,52.75
2023-02-09T21:05:39.909Z,58.67
2023-02-09T21:08:09.905Z,48.67
2023-02-09T21:10:39.079Z,49.60
2023-02-09T21:13:10.688Z,56.03
2023-02-09T21:15:43.225Z,64.97
2023-02-09T21:18:11.665Z,49.67
2023-02-09T21:20:40.188Z,48.25
2023-02-09T21:23:09.935Z,47.13
2023-02-09T21:25:38.073Z,43.05
2023-02-09T21:28:07.150Z,40.15
2023-02-09T21:30:35.523Z,54.45
2023-02-09T21:33:03.928Z,49.45
2023-02-09T21:35:32.613Z,46.97
2023-02-09T21:38:01.014Z,44.80
2023-02-09T21:40:30.736Z,45.28
2023-02-09T21:42:59.290Z,44.30
2023-02-09T21:45:27.845Z,44.53
2023-02-09T21:47:56.103Z,41.50
2023-02-09T21:50:24.551Z,36.03
2023-02-09T21:52:54.757Z,46.08
2023-02-09T21:55:23.082Z,46.40
2023-02-09T21:57:52.755Z,44.40
2023-02-09T22:00:21.743Z,40.00
2023-02-09T22:02:53.398Z,50.38
2023-02-09T22:05:22.136Z,40.17
2023-02-09T22:07:50.986Z,37.53
2023-02-09T22:10:19.496Z,39.50
2023-02-09T22:12:48.110Z,37.78
2023-02-09T22:15:19.292Z,36.30
2023-02-09T22:17:48.427Z,36.65
2023-02-09T22:20:16.879Z,36.85
2023-02-09T22:22:46.280Z,34.80
2023-02-09T22:25:14.482Z,32.58
2023-02-09T22:27:43.348Z,34.42
2023-02-09T22:30:12.912Z,31.13
2023-02-09T22:32:43.383Z,32.83
2023-02-09T22:35:11.765Z,62.60
2023-02-09T22:37:40.226Z,62.47
2023-02-09T22:40:09.431Z,42.67
2023-02-09T22:42:37.786Z,36.53
2023-02-09T22:45:07.496Z,37.60
2023-02-09T22:47:36.236Z,42.85
2023-02-09T22:50:06.690Z,35.17
2023-02-09T22:52:35.278Z,36.60
2023-02-09T22:55:03.678Z,27.63
2023-02-09T22:57:32.297Z,32.28
2023-02-09T23:00:00.580Z,37.03
2023-02-09T23:02:29.326Z,28.40
2023-02-09T23:04:57.487Z,28.88
2023-02-09T23:07:27.666Z,23.67
2023-02-09T23:09:55.947Z,26.25
2023-02-09T23:12:24.424Z,27.13
2023-02-09T23:14:54.740Z,26.13
2023-02-09T23:17:23.179Z,26.55
2023-02-09T23:19:51.479Z,27.38
2023-02-09T23:22:20.477Z,29.90
2023-02-09T23:24:50.262Z,27.20
2023-02-09T23:27:19.464Z,26.33
2023-02-09T23:29:48.050Z,25.73
2023-02-09T23:32:17.072Z,26.90
2023-02-09T23:34:45.881Z,31.63
2023-02-09T23:37:19.171Z,28.33
2023-02-09T23:40:04.673Z,37.08
2023-02-09T23:42:33.507Z,34.63
2023-02-09T23:45:02.341Z,35.22
2023-02-09T23:47:30.538Z,30.17
2023-02-09T23:49:58.891Z,34.45
2023-02-09T23:52:27.537Z,58.35
2023-02-09T23:54:56.255Z,34.40
2023-02-09T23:57:26.464Z,28.05
2023-02-09T23:59:54.810Z,30.85
